Time,TemperatureF,DewpointF,PressureIn,WindDirection,WindDirectionDegrees,WindSpeedMPH,WindSpeedGustMPH,Humidity,HourlyPrecipIn,Conditions,Clouds,dailyrainin,SolarRadiationWatts/m^2,SoftwareType,DateUTC
2013-01-06 00:00:00,31.7,25.6,30.06,South,179,1.0,11.0,78,0.00,,,0.00,0,WxPro DR1,2013-01-06 05:00:00,
2013-01-06 00:01:00,31.7,25.6,30.06,South,178,4.0,11.0,78,0.00,,,0.00,0,WxPro DR1,2013-01-06 05:01:00,
2013-01-06 00:06:00,31.7,25.6,30.05,SSE,163,3.0,11.0,78,0.00,,,0.00,0,WxPro DR1,2013-01-06 05:06:00,
2013-01-06 00:11:00,31.8,25.8,30.05,South,172,1.0,11.0,78,0.00,,,0.00,0,WxPro DR1,2013-01-06 05:11:00,
2013-01-06 00:16:00,31.9,26.2,30.05,South,186,6.0,15.0,79,0.00,,,0.00,0,WxPro DR1,2013-01-06 05:16:00,
2013-01-06 00:21:00,31.7,26.9,30.05,South,178,2.0,15.0,82,0.00,,,0.00,0,WxPro DR1,2013-01-06 05:21:00,
2013-01-06 00:26:00,31.6,27.3,30.06,South,172,9.0,11.0,84,0.00,,,0.00,0,WxPro DR1,2013-01-06 05:26:00,
2013-01-06 00:31:00,31.5,27.5,30.06,South,174,0.0,13.0,85,0.00,,,0.00,0,WxPro DR1,2013-01-06 05:31:00,
2013-01-06 00:36:00,31.5,27.5,30.06,South,190,4.0,13.0,85,0.00,,,0.00,0,WxPro DR1,2013-01-06 05:36:00,
2013-01-06 00:41:00,31.6,27.4,30.06,SSE,166,0.0,10.0,84,0.00,,,0.00,0,WxPro DR1,2013-01-06 05:41:00,
2013-01-06 00:46:00,31.7,27.4,30.06,SSE,161,3.0,14.0,84,0.00,,,0.00,0,WxPro DR1,2013-01-06 05:46:00,
2013-01-06 00:51:00,31.8,27.2,30.06,SSE,165,3.0,14.0,83,0.00,,,0.00,0,WxPro DR1,2013-01-06 05:51:00,
2013-01-06 00:56:00,31.9,27.0,30.06,South,175,2.0,7.0,82,0.00,,,0.00,0,WxPro DR1,2013-01-06 05:56:00,
2013-01-06 01:01:00,32.0,27.1,30.06,SSW,195,4.0,6.0,82,0.00,,,0.00,0,WxPro DR1,2013-01-06 06:01:00,
2013-01-06 01:06:00,32.0,26.9,30.05,South,180,3.0,6.0,81,0.00,,,0.00,0,WxPro DR1,2013-01-06 06:06:00,
2013-01-06 01:11:00,32.1,26.9,30.05,South,180,2.0,6.0,81,0.00,,,0.00,0,WxPro DR1,2013-01-06 06:11:00,
2013-01-06 01:16:00,32.1,26.8,30.05,SSW,194,0.0,10.0,81,0.00,,,0.00,0,WxPro DR1,2013-01-06 06:16:00,
2013-01-06 01:21:00,32.2,26.7,30.04,South,172,1.0,10.0,80,0.00,,,0.00,0,WxPro DR1,2013-01-06 06:21:00,
2013-01-06 01:26:00,32.2,26.8,30.04,South,183,1.0,7.0,80,0.00,,,0.00,0,WxPro DR1,2013-01-06 06:26:00,
2013-01-06 01:31:00,32.3,26.8,30.04,South,176,3.0,7.0,80,0.00,,,0.00,0,WxPro DR1,2013-01-06 06:31:00,
2013-01-06 01:36:00,32.3,26.6,30.04,South,190,6.0,7.0,79,0.00,,,0.00,0,WxPro DR1,2013-01-06 06:36:00,
2013-01-06 01:41:00,32.5,26.8,30.04,South,184,3.0,7.0,79,0.00,,,0.00,0,WxPro DR1,2013-01-06 06:41:00,
2013-01-06 01:46:00,32.7,26.6,30.03,South,172,1.0,11.0,78,0.00,,,0.00,0,WxPro DR1,2013-01-06 06:46:00,
2013-01-06 01:51:00,32.9,26.8,30.03,South,170,0.0,11.0,78,0.00,,,0.00,0,WxPro DR1,2013-01-06 06:51:00,
2013-01-06 01:56:00,32.9,26.6,30.03,South,175,0.0,10.0,77,0.00,,,0.00,0,WxPro DR1,2013-01-06 06:56:00,
2013-01-06 02:01:00,32.9,26.8,30.03,South,178,2.0,10.0,78,0.00,,,0.00,0,WxPro DR1,2013-01-06 07:01:00,
2013-01-06 02:06:00,33.0,26.5,30.03,South,179,4.0,7.0,77,0.00,,,0.00,0,WxPro DR1,2013-01-06 07:06:00,
2013-01-06 02:11:00,33.1,26.7,30.02,South,185,11.0,11.0,77,0.00,,,0.00,0,WxPro DR1,2013-01-06 07:11:00,
2013-01-06 02:16:00,33.1,26.7,30.02,SSE,165,4.0,11.0,77,0.00,,,0.00,0,WxPro DR1,2013-01-06 07:16:00,
2013-01-06 02:21:00,33.2,26.8,30.02,South,171,5.0,9.0,77,0.00,,,0.00,0,WxPro DR1,2013-01-06 07:21:00,
2013-01-06 02:26:00,33.3,26.9,30.02,SE,142,0.0,9.0,77,0.00,,,0.00,0,WxPro DR1,2013-01-06 07:26:00,
2013-01-06 02:31:00,33.3,26.9,30.02,South,169,4.0,11.0,77,0.00,,,0.00,0,WxPro DR1,2013-01-06 07:31:00,
2013-01-06 02:36:00,33.3,26.9,30.02,South,186,1.0,11.0,77,0.00,,,0.00,0,WxPro DR1,2013-01-06 07:36:00,
2013-01-06 02:41:00,33.3,26.9,30.01,South,175,0.0,7.0,77,0.00,,,0.00,0,WxPro DR1,2013-01-06 07:41:00,
2013-01-06 02:46:00,33.3,27.2,30.01,South,180,3.0,11.0,78,0.00,,,0.00,0,WxPro DR1,2013-01-06 07:46:00,
2013-01-06 02:51:00,33.3,27.5,30.01,South,181,2.0,11.0,79,0.00,,,0.00,0,WxPro DR1,2013-01-06 07:51:00,
2013-01-06 02:56:00,33.2,27.4,30.01,South,190,5.0,11.0,79,0.00,,,0.00,0,WxPro DR1,2013-01-06 07:56:00,
2013-01-06 03:01:00,33.2,27.4,30.00,South,182,6.0,11.0,79,0.00,,,0.00,0,WxPro DR1,2013-01-06 08:01:00,
2013-01-06 03:06:00,33.2,27.7,30.00,South,175,0.0,9.0,80,0.00,,,0.00,0,WxPro DR1,2013-01-06 08:06:00,
2013-01-06 03:11:00,33.0,27.8,30.00,South,175,4.0,11.0,81,0.00,,,0.00,0,WxPro DR1,2013-01-06 08:11:00,
2013-01-06 03:16:00,33.0,27.8,30.00,SSW,196,3.0,11.0,81,0.00,,,0.00,0,WxPro DR1,2013-01-06 08:16:00,
2013-01-06 03:21:00,32.9,27.7,30.00,SSE,165,0.0,7.0,81,0.00,,,0.00,0,WxPro DR1,2013-01-06 08:21:00,
2013-01-06 03:26:00,32.8,27.6,29.99,SSW,203,6.0,9.0,81,0.00,,,0.00,0,WxPro DR1,2013-01-06 08:26:00,
2013-01-06 03:31:00,32.7,27.2,29.99,South,181,4.0,11.0,80,0.00,,,0.00,0,WxPro DR1,2013-01-06 08:31:00,
2013-01-06 03:36:00,32.6,27.2,29.99,SSW,198,5.0,11.0,80,0.00,,,0.00,0,WxPro DR1,2013-01-06 08:36:00,
2013-01-06 03:41:00,32.7,27.2,29.99,South,188,2.0,11.0,80,0.00,,,0.00,0,WxPro DR1,2013-01-06 08:41:00,
2013-01-06 03:46:00,32.6,27.1,29.98,SSE,165,11.0,11.0,80,0.00,,,0.00,0,WxPro DR1,2013-01-06 08:46:00,
2013-01-06 03:51:00,32.6,27.1,29.99,South,188,2.0,12.0,80,0.00,,,0.00,0,WxPro DR1,2013-01-06 08:51:00,
2013-01-06 03:56:00,32.6,27.1,29.98,SSW,192,4.0,12.0,80,0.00,,,0.00,0,WxPro DR1,2013-01-06 08:56:00,
2013-01-06 04:01:00,32.7,27.2,29.98,South,183,6.0,10.0,80,0.00,,,0.00,0,WxPro DR1,2013-01-06 09:01:00,
2013-01-06 04:06:00,32.8,27.4,29.98,South,186,2.0,11.0,80,0.00,,,0.00,0,WxPro DR1,2013-01-06 09:06:00,
2013-01-06 04:11:00,33.0,27.5,29.98,SSW,205,2.0,11.0,80,0.00,,,0.00,0,WxPro DR1,2013-01-06 09:11:00,
2013-01-06 04:16:00,33.2,27.7,29.98,South,172,2.0,11.0,80,0.00,,,0.00,0,WxPro DR1,2013-01-06 09:16:00,
2013-01-06 04:21:00,33.3,27.8,29.97,South,171,4.0,15.0,80,0.00,,,0.00,0,WxPro DR1,2013-01-06 09:21:00,
2013-01-06 04:26:00,33.4,27.9,29.97,South,174,5.0,17.0,80,0.00,,,0.00,0,WxPro DR1,2013-01-06 09:26:00,
2013-01-06 04:31:00,33.5,27.7,29.97,SSE,151,2.0,17.0,79,0.00,,,0.00,0,WxPro DR1,2013-01-06 09:31:00,
2013-01-06 04:36:00,33.6,27.8,29.97,South,180,6.0,12.0,79,0.00,,,0.00,0,WxPro DR1,2013-01-06 09:36:00,
2013-01-06 04:41:00,33.7,27.9,29.96,South,176,2.0,14.0,79,0.00,,,0.00,0,WxPro DR1,2013-01-06 09:41:00,
2013-01-06 04:46:00,33.6,27.8,29.97,South,169,7.0,14.0,79,0.00,,,0.00,0,WxPro DR1,2013-01-06 09:46:00,
2013-01-06 04:51:00,33.8,28.0,29.96,South,172,3.0,14.0,79,0.00,,,0.00,0,WxPro DR1,2013-01-06 09:51:00,
2013-01-06 04:56:00,33.8,29.4,29.96,SSW,195,6.0,14.0,84,0.00,,,0.00,0,WxPro DR1,2013-01-06 09:56:00,
2013-01-06 05:01:00,33.8,28.6,29.96,SSE,161,4.0,14.0,81,0.00,,,0.00,0,WxPro DR1,2013-01-06 10:01:00,
2013-01-06 05:06:00,33.9,28.1,29.96,South,185,8.0,12.0,79,0.00,,,0.00,0,WxPro DR1,2013-01-06 10:06:00,
2013-01-06 05:11:00,33.9,28.1,29.96,SSE,160,5.0,12.0,79,0.00,,,0.00,0,WxPro DR1,2013-01-06 10:11:00,
2013-01-06 05:16:00,34.0,28.1,29.96,South,169,3.0,13.0,79,0.00,,,0.00,0,WxPro DR1,2013-01-06 10:16:00,
2013-01-06 05:21:00,33.9,28.1,29.96,South,182,1.0,13.0,79,0.00,,,0.00,0,WxPro DR1,2013-01-06 10:21:00,
2013-01-06 05:26:00,33.9,28.1,29.96,SW,214,5.0,10.0,79,0.00,,,0.00,0,WxPro DR1,2013-01-06 10:26:00,
2013-01-06 05:31:00,33.9,28.1,29.96,South,175,3.0,11.0,79,0.00,,,0.00,0,WxPro DR1,2013-01-06 10:31:00,
2013-01-06 05:36:00,34.0,28.2,29.96,South,174,2.0,11.0,79,0.00,,,0.00,0,WxPro DR1,2013-01-06 10:36:00,
2013-01-06 05:41:00,34.0,28.2,29.96,SSE,166,3.0,11.0,79,0.00,,,0.00,0,WxPro DR1,2013-01-06 10:41:00,
2013-01-06 05:46:00,34.0,28.5,29.95,South,184,4.0,10.0,80,0.00,,,0.00,0,WxPro DR1,2013-01-06 10:46:00,
2013-01-06 05:51:00,34.0,28.5,29.95,South,174,5.0,10.0,80,0.00,,,0.00,0,WxPro DR1,2013-01-06 10:51:00,
2013-01-06 05:56:00,34.0,28.5,29.96,South,190,0.0,13.0,80,0.00,,,0.00,0,WxPro DR1,2013-01-06 10:56:00,
2013-01-06 06:01:00,34.0,28.6,29.96,SSE,164,4.0,13.0,80,0.00,,,0.00,0,WxPro DR1,2013-01-06 11:01:00,
2013-01-06 06:06:00,34.1,28.9,29.96,SSW,195,2.0,11.0,81,0.00,,,0.00,0,WxPro DR1,2013-01-06 11:06:00,
2013-01-06 06:11:00,34.1,28.9,29.96,SSE,159,5.0,10.0,81,0.00,,,0.00,0,WxPro DR1,2013-01-06 11:11:00,
2013-01-06 06:16:00,34.1,28.9,29.96,South,188,0.0,10.0,81,0.00,,,0.00,0,WxPro DR1,2013-01-06 11:16:00,
2013-01-06 06:21:00,34.1,29.2,29.96,SW,216,1.0,7.0,82,0.00,,,0.00,0,WxPro DR1,2013-01-06 11:21:00,
2013-01-06 06:26:00,34.2,29.3,29.96,South,187,5.0,10.0,82,0.00,,,0.00,0,WxPro DR1,2013-01-06 11:26:00,
2013-01-06 06:31:00,34.4,29.5,29.96,South,172,5.0,10.0,82,0.00,,,0.00,0,WxPro DR1,2013-01-06 11:31:00,
2013-01-06 06:36:00,34.4,29.8,29.96,SSW,208,2.0,11.0,83,0.00,,,0.00,0,WxPro DR1,2013-01-06 11:36:00,
2013-01-06 06:41:00,34.4,29.8,29.96,SSE,163,3.0,11.0,83,0.00,,,0.00,0,WxPro DR1,2013-01-06 11:41:00,
2013-01-06 06:46:00,34.4,29.8,29.96,South,175,1.0,9.0,83,0.00,,,0.00,0,WxPro DR1,2013-01-06 11:46:00,
2013-01-06 06:51:00,34.4,29.8,29.96,SW,228,0.0,9.0,83,0.00,,,0.00,0,WxPro DR1,2013-01-06 11:51:00,
2013-01-06 06:56:00,34.4,29.8,29.96,SSW,200,7.0,10.0,83,0.00,,,0.00,0,WxPro DR1,2013-01-06 11:56:00,
2013-01-06 07:01:00,34.4,29.8,29.96,South,172,3.0,10.0,83,0.00,,,0.00,0,WxPro DR1,2013-01-06 12:01:00,
2013-01-06 07:06:00,34.4,29.8,29.96,SSE,168,5.0,10.0,83,0.00,,,0.00,0,WxPro DR1,2013-01-06 12:06:00,
2013-01-06 07:11:00,34.4,30.1,29.96,SSE,163,5.0,10.0,84,0.00,,,0.00,0,WxPro DR1,2013-01-06 12:11:00,
2013-01-06 07:16:00,34.4,30.1,29.96,SSE,163,4.0,11.0,84,0.00,,,0.00,0,WxPro DR1,2013-01-06 12:16:00,
2013-01-06 07:21:00,34.4,30.1,29.96,South,176,3.0,11.0,84,0.00,,,0.00,0,WxPro DR1,2013-01-06 12:21:00,
2013-01-06 07:26:00,34.3,30.0,29.95,South,182,11.0,11.0,84,0.00,,,0.00,0,WxPro DR1,2013-01-06 12:26:00,
2013-01-06 07:31:00,34.3,30.0,29.95,South,174,2.0,11.0,84,0.00,,,0.00,0,WxPro DR1,2013-01-06 12:31:00,
2013-01-06 07:36:00,34.3,30.0,29.95,South,184,2.0,10.0,84,0.00,,,0.00,0,WxPro DR1,2013-01-06 12:36:00,
2013-01-06 07:41:00,34.3,30.0,29.95,South,174,2.0,10.0,84,0.00,,,0.00,0,WxPro DR1,2013-01-06 12:41:00,
2013-01-06 07:46:00,34.4,30.0,29.95,South,177,2.0,10.0,84,0.00,,,0.00,0,WxPro DR1,2013-01-06 12:46:00,
2013-01-06 07:51:00,34.4,30.1,29.95,South,177,3.0,10.0,84,0.00,,,0.00,7,WxPro DR1,2013-01-06 12:51:00,
2013-01-06 07:56:00,34.4,30.0,29.95,South,175,2.0,10.0,84,0.00,,,0.00,12,WxPro DR1,2013-01-06 12:56:00,
2013-01-06 08:01:00,34.2,29.9,29.95,South,184,0.0,6.0,84,0.00,,,0.00,12,WxPro DR1,2013-01-06 13:01:00,
2013-01-06 08:06:00,34.3,30.0,29.95,SSW,192,0.0,7.0,84,0.00,,,0.00,19,WxPro DR1,2013-01-06 13:06:00,
2013-01-06 08:11:00,34.4,30.1,29.95,South,178,2.0,7.0,84,0.00,,,0.00,40,WxPro DR1,2013-01-06 13:11:00,
2013-01-06 08:16:00,34.4,30.1,29.95,SSW,196,2.0,6.0,84,0.00,,,0.00,72,WxPro DR1,2013-01-06 13:16:00,
2013-01-06 08:21:00,34.7,30.4,29.95,SSW,194,1.0,6.0,84,0.00,,,0.00,79,WxPro DR1,2013-01-06 13:21:00,
2013-01-06 08:26:00,35.0,30.4,29.95,South,190,2.0,6.0,83,0.00,,,0.00,81,WxPro DR1,2013-01-06 13:26:00,
2013-01-06 08:31:00,35.2,30.6,29.95,SSW,195,3.0,5.0,83,0.00,,,0.00,60,WxPro DR1,2013-01-06 13:31:00,
2013-01-06 08:36:00,35.3,30.7,29.95,SSW,209,0.0,5.0,83,0.00,,,0.00,39,WxPro DR1,2013-01-06 13:36:00,
2013-01-06 08:41:00,35.3,30.4,29.95,SSE,167,2.0,6.0,82,0.00,,,0.00,40,WxPro DR1,2013-01-06 13:41:00,
2013-01-06 08:46:00,35.4,30.5,29.95,South,174,1.0,10.0,82,0.00,,,0.00,49,WxPro DR1,2013-01-06 13:46:00,
2013-01-06 08:51:00,35.5,30.6,29.94,South,186,1.0,10.0,82,0.00,,,0.00,51,WxPro DR1,2013-01-06 13:51:00,
2013-01-06 08:56:00,35.6,30.7,29.94,WSW,237,6.0,12.0,82,0.00,,,0.00,63,WxPro DR1,2013-01-06 13:56:00,
2013-01-06 09:01:00,35.8,30.8,29.94,South,171,0.0,12.0,82,0.00,,,0.00,83,WxPro DR1,2013-01-06 14:01:00,
2013-01-06 09:06:00,35.9,30.8,29.93,South,183,0.0,12.0,81,0.00,,,0.00,90,WxPro DR1,2013-01-06 14:06:00,
2013-01-06 09:11:00,36.1,30.9,29.93,South,179,0.0,9.0,81,0.00,,,0.00,81,WxPro DR1,2013-01-06 14:11:00,
2013-01-06 09:16:00,36.3,31.0,29.93,South,186,1.0,9.0,81,0.00,,,0.00,84,WxPro DR1,2013-01-06 14:16:00,
2013-01-06 09:21:00,36.4,31.1,29.93,South,188,1.0,13.0,81,0.00,,,0.00,105,WxPro DR1,2013-01-06 14:21:00,
2013-01-06 09:26:00,36.5,31.0,29.93,SSW,195,3.0,13.0,80,0.00,,,0.00,128,WxPro DR1,2013-01-06 14:26:00,
2013-01-06 09:31:00,36.7,31.1,29.94,SSW,210,0.0,13.0,80,0.00,,,0.00,120,WxPro DR1,2013-01-06 14:31:00,
2013-01-06 09:36:00,36.8,31.2,29.94,SSW,208,2.0,6.0,80,0.00,,,0.00,100,WxPro DR1,2013-01-06 14:36:00,
2013-01-06 09:41:00,36.8,31.2,29.94,SSE,154,2.0,6.0,80,0.00,,,0.00,142,WxPro DR1,2013-01-06 14:41:00,
2013-01-06 09:46:00,36.8,31.2,29.94,South,189,4.0,7.0,80,0.00,,,0.00,100,WxPro DR1,2013-01-06 14:46:00,
2013-01-06 09:51:00,36.8,31.2,29.94,SSE,155,2.0,7.0,80,0.00,,,0.00,97,WxPro DR1,2013-01-06 14:51:00,
2013-01-06 09:56:00,36.7,31.1,29.94,South,191,1.0,8.0,80,0.00,,,0.00,102,WxPro DR1,2013-01-06 14:56:00,
2013-01-06 10:01:00,36.7,31.1,29.94,South,176,4.0,11.0,80,0.00,,,0.00,97,WxPro DR1,2013-01-06 15:01:00,
2013-01-06 10:06:00,36.7,31.1,29.94,SSW,196,1.0,11.0,80,0.00,,,0.00,100,WxPro DR1,2013-01-06 15:06:00,
2013-01-06 10:11:00,36.8,31.2,29.94,SE,125,1.0,7.0,80,0.00,,,0.00,111,WxPro DR1,2013-01-06 15:11:00,
2013-01-06 10:16:00,36.8,31.2,29.94,SSW,196,4.0,9.0,80,0.00,,,0.00,116,WxPro DR1,2013-01-06 15:16:00,
2013-01-06 10:21:00,36.8,31.2,29.94,SSW,195,3.0,9.0,80,0.00,,,0.00,109,WxPro DR1,2013-01-06 15:21:00,
2013-01-06 10:26:00,36.9,31.0,29.94,South,185,4.0,13.0,79,0.00,,,0.00,114,WxPro DR1,2013-01-06 15:26:00,
2013-01-06 10:31:00,36.9,31.0,29.94,South,188,0.0,13.0,79,0.00,,,0.00,125,WxPro DR1,2013-01-06 15:31:00,
2013-01-06 10:36:00,36.9,31.3,29.94,SSW,199,5.0,12.0,80,0.01,,,0.01,132,WxPro DR1,2013-01-06 15:36:00,
2013-01-06 10:41:00,37.0,31.4,29.94,South,191,5.0,10.0,80,0.01,,,0.01,130,WxPro DR1,2013-01-06 15:41:00,
2013-01-06 10:46:00,37.0,31.1,29.94,SSE,163,5.0,11.0,79,0.01,,,0.01,128,WxPro DR1,2013-01-06 15:46:00,
2013-01-06 10:51:00,37.0,31.4,29.94,South,191,5.0,11.0,80,0.01,,,0.01,116,WxPro DR1,2013-01-06 15:51:00,
2013-01-06 10:56:00,37.0,31.4,29.93,SW,219,4.0,11.0,80,0.01,,,0.01,109,WxPro DR1,2013-01-06 15:56:00,
2013-01-06 11:01:00,37.1,31.2,29.93,SSE,161,3.0,10.0,79,0.01,,,0.01,118,WxPro DR1,2013-01-06 16:01:00,
2013-01-06 11:06:00,37.1,31.5,29.93,SSW,206,0.0,7.0,80,0.01,,,0.01,121,WxPro DR1,2013-01-06 16:06:00,
2013-01-06 11:11:00,37.2,31.6,29.93,SSE,164,2.0,9.0,80,0.01,,,0.01,105,WxPro DR1,2013-01-06 16:11:00,
2013-01-06 11:16:00,37.2,31.6,29.93,South,184,6.0,9.0,80,0.01,,,0.01,100,WxPro DR1,2013-01-06 16:16:00,
2013-01-06 11:21:00,37.2,31.6,29.93,SW,223,1.0,8.0,80,0.01,,,0.01,102,WxPro DR1,2013-01-06 16:21:00,
2013-01-06 11:26:00,37.3,31.7,29.92,SSW,213,6.0,9.0,80,0.01,,,0.01,88,WxPro DR1,2013-01-06 16:26:00,
2013-01-06 11:31:00,37.3,31.7,29.92,SW,214,0.0,9.0,80,0.01,,,0.01,102,WxPro DR1,2013-01-06 16:31:00,
2013-01-06 11:36:00,37.3,32.0,29.92,SSE,155,3.0,9.0,81,0.00,,,0.01,114,WxPro DR1,2013-01-06 16:36:00,
2013-01-06 11:41:00,37.2,31.9,29.92,SSW,213,0.0,9.0,81,0.00,,,0.01,113,WxPro DR1,2013-01-06 16:41:00,
2013-01-06 11:46:00,37.2,31.9,29.92,SW,221,4.0,10.0,81,0.00,,,0.01,118,WxPro DR1,2013-01-06 16:46:00,
2013-01-06 11:51:00,37.2,32.2,29.91,South,180,4.0,10.0,82,0.00,,,0.01,125,WxPro DR1,2013-01-06 16:51:00,
2013-01-06 11:56:00,37.1,32.1,29.91,South,170,1.0,9.0,82,0.00,,,0.01,127,WxPro DR1,2013-01-06 16:56:00,
2013-01-06 12:01:00,37.0,32.1,29.91,SW,218,3.0,10.0,82,0.00,,,0.01,142,WxPro DR1,2013-01-06 17:01:00,
2013-01-06 12:06:00,37.0,32.3,29.90,South,176,3.0,11.0,83,0.00,,,0.01,141,WxPro DR1,2013-01-06 17:06:00,
2013-01-06 12:11:00,37.0,32.4,29.90,SSE,163,1.0,11.0,83,0.00,,,0.01,135,WxPro DR1,2013-01-06 17:11:00,
2013-01-06 12:16:00,37.1,32.4,29.90,SW,217,1.0,14.0,83,0.00,,,0.01,141,WxPro DR1,2013-01-06 17:16:00,
2013-01-06 12:21:00,37.1,32.4,29.90,South,174,6.0,14.0,83,0.00,,,0.01,141,WxPro DR1,2013-01-06 17:21:00,
2013-01-06 12:26:00,37.1,32.4,29.90,WSW,237,2.0,14.0,83,0.00,,,0.01,149,WxPro DR1,2013-01-06 17:26:00,
2013-01-06 12:31:00,37.1,32.5,29.89,South,176,9.0,11.0,83,0.00,,,0.01,155,WxPro DR1,2013-01-06 17:31:00,
2013-01-06 12:36:00,37.3,32.6,29.89,SW,218,5.0,12.0,83,0.00,,,0.01,172,WxPro DR1,2013-01-06 17:36:00,
2013-01-06 12:41:00,37.4,32.7,29.89,SSW,193,1.0,11.0,83,0.00,,,0.01,174,WxPro DR1,2013-01-06 17:41:00,
2013-01-06 12:46:00,37.6,32.6,29.89,SSW,198,0.0,10.0,82,0.00,,,0.01,137,WxPro DR1,2013-01-06 17:46:00,
2013-01-06 12:51:00,37.7,32.7,29.89,South,191,3.0,12.0,82,0.00,,,0.01,127,WxPro DR1,2013-01-06 17:51:00,
2013-01-06 12:56:00,37.7,32.7,29.89,SW,221,1.0,12.0,82,0.00,,,0.01,128,WxPro DR1,2013-01-06 17:56:00,
2013-01-06 13:01:00,37.7,32.7,29.89,SSW,207,1.0,7.0,82,0.00,,,0.01,118,WxPro DR1,2013-01-06 18:01:00,
2013-01-06 13:06:00,37.7,32.7,29.88,SSW,211,1.0,15.0,82,0.00,,,0.01,125,WxPro DR1,2013-01-06 18:06:00,
2013-01-06 13:11:00,37.7,32.7,29.88,SSE,165,2.0,15.0,82,0.00,,,0.01,104,WxPro DR1,2013-01-06 18:11:00,
2013-01-06 13:16:00,37.7,32.7,29.88,SSW,205,0.0,11.0,82,0.00,,,0.01,91,WxPro DR1,2013-01-06 18:16:00,
2013-01-06 13:21:00,37.7,32.7,29.88,West,263,3.0,9.0,82,0.00,,,0.01,81,WxPro DR1,2013-01-06 18:21:00,
2013-01-06 13:26:00,37.6,32.6,29.88,South,182,2.0,7.0,82,0.00,,,0.01,81,WxPro DR1,2013-01-06 18:26:00,
2013-01-06 13:31:00,37.6,32.6,29.89,SSE,163,0.0,10.0,82,0.00,,,0.01,81,WxPro DR1,2013-01-06 18:31:00,
2013-01-06 13:36:00,37.7,32.7,29.89,South,191,0.0,10.0,82,0.00,,,0.01,72,WxPro DR1,2013-01-06 18:36:00,
2013-01-06 13:41:00,37.6,32.6,29.89,SSW,198,1.0,7.0,82,0.00,,,0.01,60,WxPro DR1,2013-01-06 18:41:00,
2013-01-06 13:46:00,37.6,32.9,29.89,West,267,1.0,5.0,83,0.00,,,0.01,54,WxPro DR1,2013-01-06 18:46:00,
2013-01-06 13:51:00,37.6,32.9,29.89,South,186,2.0,7.0,83,0.00,,,0.01,56,WxPro DR1,2013-01-06 18:51:00,
2013-01-06 13:56:00,37.6,32.6,29.88,SW,221,1.0,7.0,82,0.00,,,0.01,60,WxPro DR1,2013-01-06 18:56:00,
2013-01-06 14:01:00,37.7,32.7,29.88,SW,214,1.0,6.0,82,0.00,,,0.01,65,WxPro DR1,2013-01-06 19:01:00,
2013-01-06 14:06:00,37.7,32.7,29.88,SW,224,5.0,6.0,82,0.00,,,0.01,62,WxPro DR1,2013-01-06 19:06:00,
2013-01-06 14:11:00,37.8,32.8,29.88,SW,219,1.0,5.0,82,0.00,,,0.01,67,WxPro DR1,2013-01-06 19:11:00,
2013-01-06 14:16:00,37.9,32.9,29.88,South,181,2.0,5.0,82,0.01,,,0.02,63,WxPro DR1,2013-01-06 19:16:00,
2013-01-06 14:21:00,38.0,32.6,29.89,WSW,249,2.0,8.0,81,0.01,,,0.02,79,WxPro DR1,2013-01-06 19:21:00,
2013-01-06 14:26:00,38.0,32.7,29.88,WSW,245,2.0,12.0,81,0.02,,,0.03,76,WxPro DR1,2013-01-06 19:26:00,
2013-01-06 14:31:00,38.1,32.8,29.89,WSW,241,0.0,12.0,81,0.02,,,0.03,79,WxPro DR1,2013-01-06 19:31:00,
2013-01-06 14:36:00,38.1,32.8,29.89,WNW,295,4.0,7.0,81,0.03,,,0.04,79,WxPro DR1,2013-01-06 19:36:00,
2013-01-06 14:46:00,38.2,32.9,29.89,SW,230,2.0,7.0,81,0.04,,,0.05,81,WxPro DR1,2013-01-06 19:46:00,
2013-01-06 14:51:00,38.3,33.0,29.89,WSW,250,3.0,10.0,81,0.04,,,0.05,72,WxPro DR1,2013-01-06 19:51:00,
2013-01-06 14:56:00,38.2,32.9,29.89,West,267,3.0,12.0,81,0.04,,,0.05,49,WxPro DR1,2013-01-06 19:56:00,
2013-01-06 15:01:00,38.2,33.1,29.89,SW,232,1.0,12.0,82,0.04,,,0.05,44,WxPro DR1,2013-01-06 20:01:00,
2013-01-06 15:06:00,38.1,33.1,29.89,West,263,0.0,12.0,82,0.04,,,0.05,39,WxPro DR1,2013-01-06 20:06:00,
2013-01-06 15:11:00,38.0,33.0,29.90,SSW,209,2.0,10.0,82,0.05,,,0.06,35,WxPro DR1,2013-01-06 20:11:00,
2013-01-06 15:13:00,38.0,33.0,29.90,WSW,242,5.0,10.0,82,0.04,,,0.06,37,WxPro DR1,2013-01-06 20:13:00,
2013-01-06 15:18:00,37.9,32.9,29.90,SW,229,3.0,10.0,82,0.04,,,0.06,33,WxPro DR1,2013-01-06 20:18:00,
2013-01-06 15:23:00,37.9,33.1,29.90,SW,230,3.0,10.0,83,0.03,,,0.06,44,WxPro DR1,2013-01-06 20:23:00,
2013-01-06 15:28:00,37.8,33.1,29.90,SW,223,1.0,13.0,83,0.03,,,0.06,37,WxPro DR1,2013-01-06 20:28:00,
2013-01-06 15:33:00,37.5,33.4,29.90,WSW,237,2.0,16.0,85,0.02,,,0.06,30,WxPro DR1,2013-01-06 20:33:00,
2013-01-06 15:38:00,37.1,33.3,29.90,SW,232,1.0,16.0,86,0.03,,,0.07,39,WxPro DR1,2013-01-06 20:38:00,
2013-01-06 15:43:00,36.9,33.4,29.91,SW,228,1.0,6.0,87,0.03,,,0.07,39,WxPro DR1,2013-01-06 20:43:00,
2013-01-06 15:48:00,36.8,33.3,29.91,SSW,199,2.0,5.0,87,0.02,,,0.07,35,WxPro DR1,2013-01-06 20:48:00,
2013-01-06 15:53:00,36.8,33.3,29.91,SW,217,1.0,5.0,87,0.02,,,0.07,25,WxPro DR1,2013-01-06 20:53:00,
2013-01-06 15:58:00,36.8,33.3,29.91,SW,225,3.0,7.0,87,0.02,,,0.07,19,WxPro DR1,2013-01-06 20:58:00,
2013-01-06 16:01:00,36.8,33.3,29.91,WSW,250,3.0,7.0,87,0.02,,,0.07,19,WxPro DR1,2013-01-06 21:01:00,
2013-01-06 16:06:00,36.8,33.3,29.91,SW,217,0.0,5.0,87,0.02,,,0.07,16,WxPro DR1,2013-01-06 21:06:00,
2013-01-06 16:11:00,36.7,33.5,29.91,SW,223,5.0,7.0,88,0.01,,,0.07,14,WxPro DR1,2013-01-06 21:11:00,
2013-01-06 16:16:00,36.6,33.4,29.92,South,191,1.0,7.0,88,0.01,,,0.07,11,WxPro DR1,2013-01-06 21:16:00,
2013-01-06 16:21:00,36.5,33.3,29.92,SSW,212,0.0,7.0,88,0.02,,,0.08,7,WxPro DR1,2013-01-06 21:21:00,
2013-01-06 16:26:00,36.3,33.4,29.92,SW,219,0.0,9.0,89,0.02,,,0.08,5,WxPro DR1,2013-01-06 21:26:00,
2013-01-06 16:31:00,36.2,33.3,29.92,SSW,199,0.0,9.0,89,0.02,,,0.08,5,WxPro DR1,2013-01-06 21:31:00,
2013-01-06 16:36:00,36.1,33.5,29.93,SSW,196,2.0,5.0,90,0.01,,,0.08,0,WxPro DR1,2013-01-06 21:36:00,
2013-01-06 16:41:00,36.0,33.4,29.93,South,174,0.0,6.0,90,0.01,,,0.08,0,WxPro DR1,2013-01-06 21:41:00,
2013-01-06 16:46:00,36.0,33.3,29.93,SW,225,1.0,6.0,90,0.01,,,0.08,0,WxPro DR1,2013-01-06 21:46:00,
2013-01-06 16:51:00,35.9,33.5,29.93,SSW,207,0.0,6.0,91,0.01,,,0.08,0,WxPro DR1,2013-01-06 21:51:00,
2013-01-06 16:56:00,35.8,33.4,29.93,South,180,2.0,6.0,91,0.02,,,0.09,0,WxPro DR1,2013-01-06 21:56:00,
2013-01-06 17:01:00,35.7,33.3,29.93,SSW,205,0.0,6.0,91,0.02,,,0.09,0,WxPro DR1,2013-01-06 22:01:00,
2013-01-06 17:06:00,35.6,33.5,29.93,SSW,200,4.0,5.0,92,0.02,,,0.09,0,WxPro DR1,2013-01-06 22:06:00,
2013-01-06 17:11:00,35.5,33.4,29.93,SSW,198,0.0,5.0,92,0.02,,,0.09,0,WxPro DR1,2013-01-06 22:11:00,
2013-01-06 17:16:00,35.4,33.3,29.93,West,280,2.0,5.0,92,0.02,,,0.09,0,WxPro DR1,2013-01-06 22:16:00,
2013-01-06 17:21:00,35.4,33.3,29.94,WSW,240,0.0,7.0,92,0.01,,,0.09,0,WxPro DR1,2013-01-06 22:21:00,
2013-01-06 17:26:00,35.4,33.6,29.94,SSW,196,1.0,7.0,93,0.01,,,0.09,0,WxPro DR1,2013-01-06 22:26:00,
2013-01-06 17:31:00,35.5,33.7,29.94,SW,219,2.0,6.0,93,0.01,,,0.09,0,WxPro DR1,2013-01-06 22:31:00,
2013-01-06 17:36:00,35.5,33.7,29.94,SW,231,5.0,5.0,93,0.01,,,0.09,0,WxPro DR1,2013-01-06 22:36:00,
2013-01-06 17:41:00,35.5,33.7,29.94,SW,216,1.0,5.0,93,0.01,,,0.09,0,WxPro DR1,2013-01-06 22:41:00,
2013-01-06 17:46:00,35.5,33.7,29.94,SW,233,1.0,5.0,93,0.02,,,0.10,0,WxPro DR1,2013-01-06 22:46:00,
2013-01-06 17:51:00,35.5,33.7,29.94,SW,226,3.0,5.0,93,0.02,,,0.10,0,WxPro DR1,2013-01-06 22:51:00,
2013-01-06 17:56:00,35.5,33.7,29.94,SW,221,1.0,5.0,93,0.01,,,0.10,0,WxPro DR1,2013-01-06 22:56:00,
2013-01-06 18:01:00,35.6,33.8,29.95,South,189,3.0,5.0,93,0.01,,,0.10,0,WxPro DR1,2013-01-06 23:01:00,
2013-01-06 18:06:00,35.6,33.8,29.95,SSW,211,3.0,5.0,93,0.01,,,0.10,0,WxPro DR1,2013-01-06 23:06:00,
2013-01-06 18:11:00,35.6,33.5,29.95,SW,217,1.0,6.0,92,0.01,,,0.10,0,WxPro DR1,2013-01-06 23:11:00,
2013-01-06 18:16:00,35.6,33.5,29.95,WSW,253,0.0,6.0,92,0.01,,,0.10,0,WxPro DR1,2013-01-06 23:16:00,
2013-01-06 18:21:00,35.6,33.5,29.95,SW,215,2.0,6.0,92,0.01,,,0.10,0,WxPro DR1,2013-01-06 23:21:00,
2013-01-06 18:26:00,35.7,33.6,29.95,SSW,209,1.0,6.0,92,0.01,,,0.10,0,WxPro DR1,2013-01-06 23:26:00,
2013-01-06 18:31:00,35.7,33.6,29.95,SW,217,0.0,5.0,92,0.01,,,0.10,0,WxPro DR1,2013-01-06 23:31:00,
2013-01-06 18:36:00,35.7,33.6,29.96,WNW,284,0.0,5.0,92,0.01,,,0.10,0,WxPro DR1,2013-01-06 23:36:00,
2013-01-06 18:41:00,35.8,33.7,29.96,West,267,2.0,5.0,92,0.01,,,0.10,0,WxPro DR1,2013-01-06 23:41:00,
2013-01-06 18:46:00,35.8,33.7,29.96,SSW,196,2.0,5.0,92,0.00,,,0.10,0,WxPro DR1,2013-01-06 23:46:00,
2013-01-06 18:51:00,35.8,33.8,29.96,SW,218,0.0,5.0,92,0.00,,,0.10,0,WxPro DR1,2013-01-06 23:51:00,
2013-01-06 18:56:00,35.9,33.8,29.97,SW,215,3.0,7.0,92,0.00,,,0.10,0,WxPro DR1,2013-01-06 23:56:00,
2013-01-06 19:01:00,35.9,33.6,29.97,SW,215,2.0,7.0,91,0.00,,,0.10,0,WxPro DR1,2013-01-07 00:01:00,
2013-01-06 19:06:00,35.9,33.5,29.97,SW,225,0.0,6.0,91,0.01,,,0.11,0,WxPro DR1,2013-01-07 00:06:00,
2013-01-06 19:11:00,35.9,33.5,29.97,SW,215,3.0,6.0,91,0.01,,,0.11,0,WxPro DR1,2013-01-07 00:11:00,
2013-01-06 19:16:00,36.0,33.8,29.97,SW,214,0.0,6.0,92,0.01,,,0.11,0,WxPro DR1,2013-01-07 00:16:00,
2013-01-06 19:21:00,36.0,33.6,29.97,SW,218,1.0,6.0,91,0.01,,,0.11,0,WxPro DR1,2013-01-07 00:21:00,
2013-01-06 19:26:00,35.9,33.5,29.97,SW,223,2.0,6.0,91,0.01,,,0.11,0,WxPro DR1,2013-01-07 00:26:00,
2013-01-06 19:31:00,35.9,33.5,29.97,SW,218,1.0,7.0,91,0.01,,,0.11,0,WxPro DR1,2013-01-07 00:31:00,
2013-01-06 19:36:00,35.9,33.8,29.97,SW,221,3.0,9.0,92,0.01,,,0.11,0,WxPro DR1,2013-01-07 00:36:00,
2013-01-06 19:41:00,35.8,33.7,29.98,SSW,210,2.0,9.0,92,0.01,,,0.11,0,WxPro DR1,2013-01-07 00:41:00,
2013-01-06 19:46:00,35.8,33.7,29.98,SW,232,1.0,9.0,92,0.01,,,0.11,0,WxPro DR1,2013-01-07 00:46:00,
2013-01-06 19:51:00,35.7,33.6,29.98,SW,215,0.0,7.0,92,0.01,,,0.11,0,WxPro DR1,2013-01-07 00:51:00,
2013-01-06 19:56:00,35.7,33.6,29.98,SW,215,0.0,7.0,92,0.01,,,0.11,0,WxPro DR1,2013-01-07 00:56:00,
2013-01-06 20:01:00,35.6,33.5,29.98,WSW,238,0.0,5.0,92,0.01,,,0.11,0,WxPro DR1,2013-01-07 01:01:00,
2013-01-06 20:06:00,35.5,33.5,29.98,WNW,284,3.0,6.0,92,0.00,,,0.11,0,WxPro DR1,2013-01-07 01:06:00,
2013-01-06 20:11:00,35.5,33.4,29.98,SW,219,2.0,6.0,92,0.00,,,0.11,0,WxPro DR1,2013-01-07 01:11:00,
2013-01-06 20:16:00,35.5,33.4,29.99,SW,236,2.0,9.0,92,0.00,,,0.11,0,WxPro DR1,2013-01-07 01:16:00,
2013-01-06 20:21:00,35.5,33.7,29.99,SW,219,2.0,9.0,93,0.00,,,0.11,0,WxPro DR1,2013-01-07 01:21:00,
2013-01-06 20:26:00,35.5,33.7,29.99,WSW,245,0.0,9.0,93,0.00,,,0.11,0,WxPro DR1,2013-01-07 01:26:00,
2013-01-06 20:31:00,35.5,33.7,29.99,SW,218,0.0,6.0,93,0.00,,,0.11,0,WxPro DR1,2013-01-07 01:31:00,
2013-01-06 20:36:00,35.4,33.3,29.99,WSW,241,0.0,5.0,92,0.00,,,0.11,0,WxPro DR1,2013-01-07 01:36:00,
2013-01-06 20:41:00,35.3,33.3,29.99,SW,223,4.0,5.0,92,0.00,,,0.11,0,WxPro DR1,2013-01-07 01:41:00,
2013-01-06 20:46:00,35.3,33.5,30.00,SW,219,3.0,10.0,93,0.00,,,0.11,0,WxPro DR1,2013-01-07 01:46:00,
2013-01-06 20:51:00,35.3,33.5,30.00,SW,219,1.0,10.0,93,0.01,,,0.12,0,WxPro DR1,2013-01-07 01:51:00,
2013-01-06 20:56:00,35.2,33.4,30.00,SW,230,0.0,5.0,93,0.01,,,0.12,0,WxPro DR1,2013-01-07 01:56:00,
2013-01-06 21:01:00,35.2,33.4,30.00,West,259,2.0,6.0,93,0.01,,,0.12,0,WxPro DR1,2013-01-07 02:01:00,
2013-01-06 21:06:00,35.3,33.5,30.00,WSW,246,1.0,6.0,93,0.01,,,0.12,0,WxPro DR1,2013-01-07 02:06:00,
2013-01-06 21:11:00,35.3,33.5,30.00,WSW,246,2.0,6.0,93,0.01,,,0.12,0,WxPro DR1,2013-01-07 02:11:00,
2013-01-06 21:16:00,35.2,33.4,30.00,South,176,0.0,6.0,93,0.01,,,0.12,0,WxPro DR1,2013-01-07 02:16:00,
2013-01-06 21:21:00,35.2,33.4,30.00,West,277,0.0,7.0,93,0.01,,,0.12,0,WxPro DR1,2013-01-07 02:21:00,
2013-01-06 21:26:00,35.3,33.4,30.00,West,277,7.0,7.0,93,0.01,,,0.12,0,WxPro DR1,2013-01-07 02:26:00,
2013-01-06 21:31:00,35.3,33.2,30.01,West,267,2.0,9.0,92,0.01,,,0.12,0,WxPro DR1,2013-01-07 02:31:00,
2013-01-06 21:36:00,35.3,33.2,30.01,WSW,258,8.0,10.0,92,0.01,,,0.12,0,WxPro DR1,2013-01-07 02:36:00,
2013-01-06 21:41:00,35.3,33.2,30.01,WSW,249,5.0,10.0,92,0.01,,,0.12,0,WxPro DR1,2013-01-07 02:41:00,
2013-01-06 21:46:00,35.4,33.3,30.01,West,259,1.0,10.0,92,0.01,,,0.12,0,WxPro DR1,2013-01-07 02:46:00,
2013-01-06 21:51:00,35.5,33.4,30.01,WSW,248,0.0,10.0,92,0.00,,,0.12,0,WxPro DR1,2013-01-07 02:51:00,
2013-01-06 21:56:00,35.5,33.4,30.01,WSW,253,2.0,11.0,92,0.00,,,0.12,0,WxPro DR1,2013-01-07 02:56:00,
2013-01-06 22:01:00,35.5,33.4,30.02,West,275,0.0,11.0,92,0.00,,,0.12,0,WxPro DR1,2013-01-07 03:01:00,
2013-01-06 22:06:00,35.5,33.4,30.02,SW,222,2.0,9.0,92,0.00,,,0.12,0,WxPro DR1,2013-01-07 03:06:00,
2013-01-06 22:11:00,35.5,33.1,30.02,West,271,2.0,6.0,91,0.00,,,0.12,0,WxPro DR1,2013-01-07 03:11:00,
2013-01-06 22:16:00,35.5,33.1,30.02,WNW,292,3.0,6.0,91,0.00,,,0.12,0,WxPro DR1,2013-01-07 03:16:00,
2013-01-06 22:21:00,35.5,33.4,30.02,West,279,4.0,10.0,92,0.00,,,0.12,0,WxPro DR1,2013-01-07 03:21:00,
2013-01-06 22:26:00,35.5,33.2,30.02,West,265,1.0,10.0,91,0.00,,,0.12,0,WxPro DR1,2013-01-07 03:26:00,
2013-01-06 22:31:00,35.6,33.2,30.03,West,275,5.0,7.0,91,0.00,,,0.12,0,WxPro DR1,2013-01-07 03:31:00,
2013-01-06 22:36:00,35.5,33.2,30.03,WSW,250,3.0,9.0,91,0.00,,,0.12,0,WxPro DR1,2013-01-07 03:36:00,
2013-01-06 22:41:00,35.6,33.2,30.03,WSW,240,0.0,9.0,91,0.00,,,0.12,0,WxPro DR1,2013-01-07 03:41:00,
2013-01-06 22:46:00,35.6,33.2,30.03,WSW,247,2.0,8.0,91,0.00,,,0.12,0,WxPro DR1,2013-01-07 03:46:00,
2013-01-06 22:51:00,35.6,33.2,30.04,WNW,294,1.0,9.0,91,0.01,,,0.13,0,WxPro DR1,2013-01-07 03:51:00,
2013-01-06 22:56:00,35.6,33.2,30.04,WSW,242,0.0,9.0,91,0.01,,,0.13,0,WxPro DR1,2013-01-07 03:56:00,
2013-01-06 23:01:00,35.6,33.2,30.04,SSW,208,2.0,5.0,91,0.01,,,0.13,0,WxPro DR1,2013-01-07 04:01:00,
2013-01-06 23:06:00,35.6,33.2,30.04,WSW,248,5.0,7.0,91,0.01,,,0.13,0,WxPro DR1,2013-01-07 04:06:00,
2013-01-06 23:11:00,35.6,33.2,30.04,WSW,253,1.0,8.0,91,0.01,,,0.13,0,WxPro DR1,2013-01-07 04:11:00,
2013-01-06 23:16:00,35.6,33.2,30.04,West,259,2.0,9.0,91,0.01,,,0.13,0,WxPro DR1,2013-01-07 04:16:00,
2013-01-06 23:21:00,35.7,33.3,30.05,WNW,298,3.0,9.0,91,0.01,,,0.13,0,WxPro DR1,2013-01-07 04:21:00,
2013-01-06 23:26:00,35.7,33.3,30.05,WSW,250,4.0,9.0,91,0.01,,,0.13,0,WxPro DR1,2013-01-07 04:26:00,
2013-01-06 23:31:00,35.7,33.3,30.05,West,269,1.0,10.0,91,0.01,,,0.13,0,WxPro DR1,2013-01-07 04:31:00,
2013-01-06 23:36:00,35.7,33.3,30.05,West,275,2.0,10.0,91,0.01,,,0.13,0,WxPro DR1,2013-01-07 04:36:00,
2013-01-06 23:41:00,35.7,33.3,30.06,WNW,303,6.0,10.0,91,0.01,,,0.13,0,WxPro DR1,2013-01-07 04:41:00,
2013-01-06 23:46:00,35.7,33.3,30.06,NW,306,8.0,10.0,91,0.01,,,0.13,0,WxPro DR1,2013-01-07 04:46:00,
2013-01-06 23:51:00,35.7,33.3,30.07,West,272,5.0,10.0,91,0.00,,,0.13,0,WxPro DR1,2013-01-07 04:51:00,
2013-01-06 23:56:00,35.7,33.6,30.07,WNW,302,3.0,10.0,92,0.00,,,0.13,0,WxPro DR1,2013-01-07 04:56:00,